Time;durP1;ratioP1;P1;durP2;ratioP2;P2;SDS_P1;SDS_P2;PMS_P1;PMS_P2;Temp;Humidity;BMP_temperature;BMP_pressure;BME280_temperature;BME280_humidity;BME280_pressure;Samples;Min_cycle;Max_cycle;Signal;HPM_P1;HPM_P2
2022/08/25 00:01:53;;;;;;;2.10;0.60;;;15.10;99.90;;;;;;5011858;28;20608;-69
2022/08/25 00:04:25;;;;;;;1.23;0.40;;;15.10;99.90;;;;;;5010613;28;20239;-70
2022/08/25 00:06:57;;;;;;;0.40;0.30;;;15.10;99.90;;;;;;5011262;28;20206;-69
2022/08/25 00:09:29;;;;;;;3.13;0.43;;;15.20;99.90;;;;;;5011436;28;20309;-69
2022/08/25 00:12:02;;;;;;;1.20;0.50;;;15.40;99.90;;;;;;5011162;28;20282;-69
2022/08/25 00:14:35;;;;;;;0.80;0.40;;;15.50;99.90;;;;;;5009649;28;20195;-73
2022/08/25 00:17:07;;;;;;;0.60;0.32;;;15.70;99.90;;;;;;5010818;28;20309;-69
2022/08/25 00:19:39;;;;;;;0.43;0.40;;;15.80;99.90;;;;;;5010991;28;20199;-69
2022/08/25 00:22:10;;;;;;;0.63;0.38;;;15.90;99.90;;;;;;5010115;28;20641;-72
2022/08/25 00:24:41;;;;;;;0.60;0.40;;;16.00;99.90;;;;;;5010354;28;20191;-69
2022/08/25 00:27:14;;;;;;;0.75;0.43;;;16.10;99.90;;;;;;5005302;28;20310;-72
2022/08/25 00:29:45;;;;;;;1.75;0.40;;;16.20;99.90;;;;;;5006324;28;20312;-71
2022/08/25 00:32:17;;;;;;;0.65;0.40;;;16.20;99.90;;;;;;5011699;28;20205;-68
2022/08/25 00:34:48;;;;;;;0.63;0.28;;;16.40;99.90;;;;;;5003694;28;20230;-68
2022/08/25 00:37:18;;;;;;;0.63;0.40;;;16.60;99.90;;;;;;5012036;28;20726;-69
2022/08/25 00:39:49;;;;;;;2.28;0.43;;;16.80;99.90;;;;;;5012197;28;20278;-68
2022/08/25 00:42:22;;;;;;;0.70;0.40;;;16.90;99.90;;;;;;5011958;28;20223;-69
2022/08/25 00:44:53;;;;;;;0.30;0.30;;;17.10;99.90;;;;;;5004853;28;20214;-68
2022/08/25 00:47:23;;;;;;;0.25;0.25;;;17.10;99.90;;;;;;5011757;28;20189;-68
2022/08/25 00:49:57;;;;;;;1.98;0.43;;;17.10;99.90;;;;;;5004447;28;20238;-69
2022/08/25 00:52:31;;;;;;;0.70;0.30;;;17.20;99.90;;;;;;5011929;28;20222;-68
2022/08/25 00:55:06;;;;;;;0.52;0.32;;;17.50;99.90;;;;;;5005561;28;20230;-67
2022/08/25 00:57:43;;;;;;;0.75;0.50;;;17.60;99.90;;;;;;5012162;28;20278;-67
2022/08/25 01:00:18;;;;;;;0.30;0.30;;;17.70;99.90;;;;;;5011623;28;20236;-68
2022/08/25 01:02:49;;;;;;;0.30;0.30;;;17.70;99.90;;;;;;5011839;28;20206;-67
2022/08/25 01:05:21;;;;;;;0.10;0.10;;;17.60;99.90;;;;;;5012180;28;20217;-67
2022/08/25 01:07:52;;;;;;;0.20;0.20;;;17.60;99.90;;;;;;5011480;28;20199;-68
2022/08/25 01:10:25;;;;;;;0.35;0.30;;;17.60;99.90;;;;;;5011446;28;20682;-67
2022/08/25 01:13:04;;;;;;;1.30;0.30;;;17.60;99.90;;;;;;5011617;28;20195;-67
2022/08/25 01:15:36;;;;;;;1.55;0.20;;;17.70;99.90;;;;;;5011106;28;20218;-68
2022/08/25 01:18:07;;;;;;;0.70;0.20;;;17.70;99.90;;;;;;5011502;28;20670;-67
2022/08/25 01:20:38;;;;;;;0.70;0.20;;;17.80;99.90;;;;;;5008787;28;20302;-67
2022/08/25 01:23:11;;;;;;;1.08;0.30;;;17.90;99.90;;;;;;5005291;28;20194;-67
2022/08/25 01:25:49;;;;;;;0.20;0.20;;;18.10;99.90;;;;;;5013338;28;20673;-67
2022/08/25 01:28:20;;;;;;;1.20;0.20;;;18.30;99.90;;;;;;5015274;28;20194;-66
2022/08/25 01:30:51;;;;;;;0.22;0.20;;;18.30;99.90;;;;;;5014517;28;20199;-67
2022/08/25 01:33:22;;;;;;;0.52;0.20;;;18.40;99.90;;;;;;5015671;28;20237;-67
2022/08/25 01:35:53;;;;;;;0.68;0.50;;;18.40;99.90;;;;;;5014795;28;20195;-67
2022/08/25 01:38:26;;;;;;;0.55;0.30;;;18.50;99.90;;;;;;5014296;28;20249;-67
2022/08/25 01:40:57;;;;;;;0.20;0.20;;;18.50;99.90;;;;;;5014030;28;20196;-67
2022/08/25 01:43:38;;;;;;;0.28;0.28;;;18.50;99.90;;;;;;5014965;28;20282;-68
2022/08/25 01:46:09;;;;;;;0.47;0.30;;;18.50;99.90;;;;;;5014511;28;20183;-67
2022/08/25 01:48:40;;;;;;;0.73;0.47;;;18.40;99.90;;;;;;5015048;28;20189;-68
2022/08/25 01:51:11;;;;;;;1.80;0.60;;;18.30;99.90;;;;;;5007629;28;20195;-67
2022/08/25 01:53:44;;;;;;;1.83;0.52;;;18.20;99.90;;;;;;5014852;28;20702;-67
2022/08/25 01:56:16;;;;;;;0.98;0.40;;;18.10;99.90;;;;;;5014062;28;20198;-67
2022/08/25 01:58:49;;;;;;;2.00;0.30;;;18.10;99.90;;;;;;5014295;28;20226;-67
2022/08/25 02:01:22;;;;;;;0.40;0.30;;;18.00;99.90;;;;;;5010582;28;20194;-67
2022/08/25 02:03:56;;;;;;;0.20;0.20;;;17.80;99.90;;;;;;5014582;28;20656;-67
2022/08/25 02:06:30;;;;;;;0.30;0.30;;;17.70;99.90;;;;;;5014243;28;20564;-67
2022/08/25 02:09:06;;;;;;;1.23;0.30;;;17.50;99.90;;;;;;5013877;28;20221;-67
2022/08/25 02:11:40;;;;;;;2.47;0.55;;;17.40;99.90;;;;;;5006619;28;20198;-67
2022/08/25 02:14:11;;;;;;;1.70;0.50;;;17.30;99.90;;;;;;5004800;28;20187;-67
2022/08/25 02:16:43;;;;;;;2.55;0.40;;;17.20;99.90;;;;;;5008109;28;20187;-68
2022/08/25 02:19:14;;;;;;;0.82;0.40;;;17.10;99.90;;;;;;5003550;28;20230;-67
2022/08/25 02:21:46;;;;;;;0.20;0.20;;;17.00;99.90;;;;;;5002407;28;20215;-69
2022/08/25 02:24:18;;;;;;;0.98;0.30;;;17.00;99.90;;;;;;5003654;28;20210;-66
2022/08/25 02:26:49;;;;;;;0.45;0.30;;;16.90;99.90;;;;;;5004825;28;20285;-67
2022/08/25 02:29:20;;;;;;;1.05;0.35;;;17.00;99.90;;;;;;5003265;28;20708;-68
2022/08/25 02:31:51;;;;;;;0.63;0.32;;;16.90;99.90;;;;;;5005286;28;20222;-67
2022/08/25 02:34:22;;;;;;;0.30;0.22;;;16.90;99.90;;;;;;5006360;28;20274;-67
2022/08/25 02:36:53;;;;;;;0.60;0.35;;;17.00;99.90;;;;;;5003681;28;20242;-67
2022/08/25 02:39:26;;;;;;;1.48;0.20;;;17.20;99.90;;;;;;5004343;28;20227;-67
2022/08/25 02:41:57;;;;;;;0.60;0.40;;;17.30;99.90;;;;;;5006495;28;20234;-67
2022/08/25 02:44:28;;;;;;;0.75;0.30;;;17.50;99.90;;;;;;5004823;28;20685;-67
2022/08/25 02:46:58;;;;;;;3.17;1.85;;;17.60;99.90;;;;;;5002287;28;20270;-67
2022/08/25 02:49:30;;;;;;;1.13;0.70;;;17.80;99.90;;;;;;5004127;28;20290;-66
2022/08/25 02:52:01;;;;;;;0.80;0.57;;;17.90;99.90;;;;;;5001917;28;20188;-68
2022/08/25 02:54:34;;;;;;;0.98;0.28;;;18.00;99.90;;;;;;5006388;28;20184;-67
2022/08/25 02:57:05;;;;;;;0.65;0.52;;;18.00;99.90;;;;;;5004327;28;20283;-67
2022/08/25 02:59:36;;;;;;;0.43;0.22;;;17.90;99.90;;;;;;5001424;28;20282;-68
2022/08/25 03:02:07;;;;;;;1.08;0.22;;;17.90;99.90;;;;;;5005926;28;20194;-67
2022/08/25 03:04:38;;;;;;;0.30;0.30;;;17.70;99.90;;;;;;5005944;28;20220;-67
2022/08/25 03:07:08;;;;;;;0.20;0.20;;;17.70;99.90;;;;;;5003466;28;20186;-66
2022/08/25 03:09:41;;;;;;;0.40;0.30;;;17.50;99.90;;;;;;5005519;28;20276;-67
2022/08/25 03:12:12;;;;;;;0.30;0.30;;;17.40;99.90;;;;;;5003570;28;20195;-66
2022/08/25 03:14:43;;;;;;;0.38;0.30;;;17.20;99.90;;;;;;5005333;28;20191;-67
2022/08/25 03:17:14;;;;;;;0.35;0.25;;;17.10;99.90;;;;;;5002136;28;20196;-66
2022/08/25 03:19:45;;;;;;;0.30;0.22;;;17.10;99.90;;;;;;5004218;28;20197;-67
2022/08/25 03:22:16;;;;;;;1.90;0.22;;;17.00;99.90;;;;;;5004915;28;20329;-67
2022/08/25 03:24:48;;;;;;;0.40;0.30;;;17.00;99.90;;;;;;5008428;28;20197;-66
2022/08/25 03:27:18;;;;;;;0.43;0.40;;;16.80;99.90;;;;;;5002649;28;20278;-67
2022/08/25 03:29:48;;;;;;;0.75;0.40;;;16.70;99.90;;;;;;5006969;28;20234;-67
2022/08/25 03:32:19;;;;;;;1.52;0.50;;;16.70;99.90;;;;;;5011407;28;20531;-66
2022/08/25 03:34:50;;;;;;;1.63;0.50;;;16.60;99.90;;;;;;5005640;28;20274;-67
2022/08/25 03:37:21;;;;;;;1.48;0.40;;;16.60;99.90;;;;;;5004234;28;20231;-66
2022/08/25 03:39:53;;;;;;;1.10;0.30;;;16.60;99.90;;;;;;5008012;28;20249;-67
2022/08/25 03:42:25;;;;;;;0.40;0.30;;;16.60;99.90;;;;;;5005810;28;20896;-67
2022/08/25 03:44:56;;;;;;;0.95;0.30;;;16.50;99.90;;;;;;5009862;28;20312;-67
2022/08/25 03:47:28;;;;;;;0.47;0.40;;;16.50;99.90;;;;;;5005833;28;20191;-66
2022/08/25 03:49:59;;;;;;;1.27;0.60;;;16.60;99.90;;;;;;5003372;28;20215;-66
2022/08/25 03:52:30;;;;;;;0.40;0.32;;;16.60;99.90;;;;;;5006235;28;20195;-66
2022/08/25 03:55:02;;;;;;;3.03;0.50;;;16.70;99.90;;;;;;5006162;28;20184;-67
2022/08/25 03:57:33;;;;;;;1.65;0.35;;;16.70;99.90;;;;;;5002492;28;20195;-71
2022/08/25 04:00:04;;;;;;;1.08;0.40;;;16.80;99.90;;;;;;5003952;28;20625;-67
2022/08/25 04:02:35;;;;;;;0.60;0.40;;;16.90;99.90;;;;;;5007232;28;20576;-66
2022/08/25 04:05:06;;;;;;;0.73;0.30;;;16.90;99.90;;;;;;5004532;28;20233;-67
2022/08/25 04:07:37;;;;;;;1.95;0.40;;;16.90;99.90;;;;;;5004925;28;20198;-66
2022/08/25 04:10:12;;;;;;;1.20;0.45;;;16.90;99.90;;;;;;5000406;28;20295;-66
2022/08/25 04:12:42;;;;;;;1.50;0.80;;;16.90;99.90;;;;;;5010005;28;20590;-66
2022/08/25 04:15:14;;;;;;;1.25;0.50;;;16.90;99.90;;;;;;5006789;28;20274;-67
2022/08/25 04:17:44;;;;;;;0.68;0.30;;;16.90;99.90;;;;;;5001898;28;20572;-66
2022/08/25 04:20:15;;;;;;;1.35;0.30;;;16.80;99.90;;;;;;5007397;28;20206;-66
2022/08/25 04:22:46;;;;;;;0.47;0.40;;;16.70;99.90;;;;;;5005146;28;20278;-67
2022/08/25 04:25:19;;;;;;;0.88;0.50;;;16.70;99.90;;;;;;5008676;28;20223;-66
2022/08/25 04:27:50;;;;;;;4.43;0.57;;;16.60;99.90;;;;;;5004411;28;20230;-66
2022/08/25 04:30:21;;;;;;;2.05;0.40;;;16.60;99.90;;;;;;5002783;28;20207;-67
2022/08/25 04:32:52;;;;;;;1.50;0.40;;;16.60;99.90;;;;;;5006072;28;20650;-66
2022/08/25 04:35:23;;;;;;;2.50;0.60;;;16.50;99.90;;;;;;5002624;28;20606;-66
2022/08/25 04:37:53;;;;;;;0.70;0.50;;;16.50;99.90;;;;;;5008139;28;20226;-67
2022/08/25 04:40:26;;;;;;;0.60;0.40;;;16.50;99.90;;;;;;5003593;28;20219;-67
2022/08/25 04:42:57;;;;;;;1.45;0.30;;;16.40;99.90;;;;;;5008123;28;20218;-68
2022/08/25 04:45:28;;;;;;;0.95;0.38;;;16.40;99.90;;;;;;5008052;28;20199;-66
2022/08/25 04:47:59;;;;;;;0.73;0.30;;;16.40;99.90;;;;;;5008273;28;20230;-67
2022/08/25 04:50:30;;;;;;;1.42;0.35;;;16.40;99.90;;;;;;4999243;28;20211;-66
2022/08/25 04:53:01;;;;;;;1.90;0.50;;;16.30;99.90;;;;;;4998819;28;20270;-67
2022/08/25 04:55:34;;;;;;;1.00;0.50;;;16.30;99.90;;;;;;5005239;28;20195;-67
2022/08/25 04:58:05;;;;;;;0.63;0.40;;;16.30;99.90;;;;;;5003562;28;20226;-67
2022/08/25 05:00:38;;;;;;;1.63;0.40;;;16.30;99.90;;;;;;5007315;28;20187;-67
2022/08/25 05:03:09;;;;;;;2.17;0.40;;;16.20;99.90;;;;;;5007179;28;20191;-69
2022/08/25 05:05:40;;;;;;;0.50;0.40;;;16.20;99.90;;;;;;5006995;28;20211;-67
2022/08/25 05:08:11;;;;;;;0.77;0.40;;;16.20;99.90;;;;;;5002214;28;20230;-69
2022/08/25 05:10:44;;;;;;;0.60;0.30;;;16.10;99.90;;;;;;5004527;28;20297;-67
2022/08/25 05:13:15;;;;;;;0.80;0.40;;;16.10;99.90;;;;;;5010525;28;20577;-70
2022/08/25 05:15:52;;;;;;;0.82;0.30;;;16.10;99.90;;;;;;5007666;28;20264;-68
2022/08/25 05:18:25;;;;;;;1.55;0.45;;;16.10;99.90;;;;;;5010585;28;20266;-67
2022/08/25 05:20:57;;;;;;;0.93;0.40;;;16.10;99.90;;;;;;5006347;28;20761;-67
2022/08/25 05:23:28;;;;;;;1.10;0.40;;;16.10;99.90;;;;;;5008344;28;20274;-67
2022/08/25 05:26:05;;;;;;;1.23;0.47;;;16.10;99.90;;;;;;5008615;28;20191;-67
2022/08/25 05:28:36;;;;;;;2.50;0.70;;;16.10;99.90;;;;;;5006423;28;20281;-67
2022/08/25 05:31:07;;;;;;;2.40;0.40;;;16.00;99.90;;;;;;5009665;28;20302;-67
2022/08/25 05:33:38;;;;;;;1.17;0.43;;;16.00;99.90;;;;;;5003656;28;20625;-68
2022/08/25 05:36:10;;;;;;;0.70;0.50;;;16.00;99.90;;;;;;5003558;28;20187;-67
2022/08/25 05:38:42;;;;;;;4.10;0.60;;;16.00;99.90;;;;;;5007502;28;20239;-68
2022/08/25 05:41:18;;;;;;;1.10;0.73;;;16.00;99.90;;;;;;5009044;28;20223;-66
2022/08/25 05:43:50;;;;;;;1.08;0.60;;;15.90;99.90;;;;;;5006643;28;20191;-67
2022/08/25 05:46:23;;;;;;;8.57;1.33;;;15.90;99.90;;;;;;5008432;28;20674;-68
2022/08/25 05:48:54;;;;;;;2.45;0.70;;;15.90;99.90;;;;;;5005066;28;20194;-68
2022/08/25 05:51:25;;;;;;;3.33;0.60;;;15.90;99.90;;;;;;5006654;28;20218;-69
2022/08/25 05:53:55;;;;;;;2.30;0.70;;;15.80;99.90;;;;;;5007274;28;20223;-67
2022/08/25 05:56:28;;;;;;;1.50;0.50;;;15.90;99.90;;;;;;5006382;28;20576;-69
2022/08/25 05:58:59;;;;;;;3.80;0.68;;;15.90;99.90;;;;;;5008115;28;20220;-67
2022/08/25 06:04:21;;;;;;;2.22;0.80;;;15.80;99.90;;;;;;5005883;28;20193;-68
2022/08/25 06:06:53;;;;;;;1.30;0.60;;;15.80;99.90;;;;;;5004921;28;20246;-74
2022/08/25 06:09:25;;;;;;;0.85;0.65;;;15.80;99.90;;;;;;5008344;28;20534;-70
2022/08/25 06:11:58;;;;;;;1.48;0.77;;;15.90;99.90;;;;;;5006771;28;20305;-70
2022/08/25 06:14:28;;;;;;;4.07;1.08;;;15.80;99.90;;;;;;5005912;28;20554;-67
2022/08/25 06:16:59;;;;;;;4.25;0.70;;;15.90;99.90;;;;;;5004459;28;20256;-67
2022/08/25 06:19:30;;;;;;;4.65;0.95;;;15.80;99.90;;;;;;5003651;28;20274;-66
2022/08/25 06:22:01;;;;;;;1.73;0.70;;;15.80;99.90;;;;;;5003197;28;20777;-66
2022/08/25 06:24:32;;;;;;;2.40;0.68;;;15.90;99.90;;;;;;5006183;28;20716;-67
2022/08/25 06:27:05;;;;;;;2.83;0.77;;;15.90;99.90;;;;;;5003136;28;20563;-67
2022/08/25 06:29:35;;;;;;;2.08;0.77;;;15.90;99.90;;;;;;5002265;28;20187;-66
2022/08/25 06:32:06;;;;;;;3.33;0.90;;;15.90;99.90;;;;;;5006116;28;20306;-66
2022/08/25 06:34:37;;;;;;;2.65;0.80;;;15.80;99.90;;;;;;5013522;28;20622;-67
2022/08/25 06:37:08;;;;;;;3.60;1.00;;;15.80;99.90;;;;;;5013309;28;20245;-66
2022/08/25 06:39:39;;;;;;;1.05;0.73;;;15.80;99.90;;;;;;5014184;28;20197;-67
2022/08/25 06:42:12;;;;;;;3.45;0.90;;;15.80;99.90;;;;;;5014210;28;20219;-66
2022/08/25 06:44:43;;;;;;;2.53;0.70;;;15.80;99.90;;;;;;5013912;28;20670;-66
2022/08/25 06:47:14;;;;;;;2.75;0.88;;;15.70;99.90;;;;;;5008837;28;20751;-70
2022/08/25 06:49:45;;;;;;;3.63;0.88;;;15.80;99.90;;;;;;5013759;28;20278;-66
2022/08/25 06:52:16;;;;;;;1.30;0.52;;;15.80;99.90;;;;;;5005967;28;20215;-67
2022/08/25 06:54:47;;;;;;;1.45;0.70;;;15.80;99.90;;;;;;5013663;28;20195;-67
2022/08/25 06:57:19;;;;;;;2.17;1.00;;;15.70;99.90;;;;;;5013185;28;20639;-67
2022/08/25 06:59:50;;;;;;;3.13;0.75;;;15.70;99.90;;;;;;5013649;28;20198;-67
2022/08/25 07:02:21;;;;;;;2.28;0.90;;;15.70;99.90;;;;;;5013221;28;20195;-67
2022/08/25 07:04:53;;;;;;;2.40;0.80;;;15.70;99.90;;;;;;5013388;28;20194;-68
2022/08/25 07:07:24;;;;;;;4.00;1.02;;;15.70;99.90;;;;;;5013112;28;20195;-66
2022/08/25 07:09:56;;;;;;;2.70;0.93;;;15.60;99.90;;;;;;5012095;28;20184;-67
2022/08/25 07:12:31;;;;;;;1.90;0.93;;;15.60;99.90;;;;;;5010571;28;20254;-72
2022/08/25 07:15:01;;;;;;;2.13;1.00;;;15.50;99.90;;;;;;5011276;28;20208;-67
2022/08/25 07:17:32;;;;;;;1.88;0.80;;;15.40;99.90;;;;;;5009630;28;20584;-79
2022/08/25 07:20:03;;;;;;;2.10;1.10;;;15.40;99.90;;;;;;5007609;28;20202;-66
2022/08/25 07:22:34;;;;;;;1.50;1.10;;;15.20;99.90;;;;;;5011285;28;20235;-66
2022/08/25 07:25:05;;;;;;;2.25;0.90;;;15.20;99.90;;;;;;5013245;28;20218;-67
2022/08/25 07:27:38;;;;;;;2.00;0.98;;;15.10;99.90;;;;;;5011110;28;20203;-67
2022/08/25 07:30:10;;;;;;;3.85;1.35;;;15.00;99.90;;;;;;5011932;28;20199;-68
2022/08/25 07:32:41;;;;;;;2.50;0.80;;;15.00;99.90;;;;;;5010317;28;20230;-66
2022/08/25 07:35:19;;;;;;;2.42;0.80;;;14.90;99.90;;;;;;5038188;22;20240;-84
2022/08/25 07:37:55;;;;;;;1.33;0.80;;;14.90;99.90;;;;;;5022210;28;20198;-79
2022/08/25 07:40:28;;;;;;;1.58;0.90;;;14.80;99.90;;;;;;5027967;28;20194;-80
2022/08/25 07:43:07;;;;;;;1.90;0.90;;;14.80;99.90;;;;;;5026236;28;20202;-83
2022/08/25 07:45:41;;;;;;;2.13;0.98;;;14.70;99.90;;;;;;5019396;28;20720;-79
2022/08/25 07:48:14;;;;;;;1.95;1.00;;;14.70;99.90;;;;;;5023705;28;20194;-80
2022/08/25 07:50:47;;;;;;;3.00;1.02;;;14.60;99.90;;;;;;5024887;28;20672;-82
2022/08/25 07:53:19;;;;;;;2.15;1.10;;;14.50;99.90;;;;;;5023916;28;20209;-80
2022/08/25 07:55:50;;;;;;;3.40;1.00;;;14.50;99.90;;;;;;5020004;28;20242;-75
2022/08/25 07:58:25;;;;;;;3.35;1.10;;;14.40;99.90;;;;;;5029442;28;20709;-81
2022/08/25 08:00:56;;;;;;;2.80;1.23;;;14.30;99.90;;;;;;5026280;28;20572;-78
2022/08/25 08:03:28;;;;;;;2.03;1.25;;;14.30;99.90;;;;;;5020372;28;20203;-82
2022/08/25 08:05:59;;;;;;;3.20;1.23;;;14.20;99.90;;;;;;5016758;28;20253;-82
2022/08/25 08:08:30;;;;;;;3.75;1.50;;;14.20;99.90;;;;;;5029036;28;20200;-80
2022/08/25 08:11:01;;;;;;;4.35;1.60;;;14.10;99.90;;;;;;5016041;28;20215;-78
2022/08/25 08:13:34;;;;;;;5.20;1.98;;;14.10;99.90;;;;;;5015718;28;20197;-82
2022/08/25 08:16:14;;;;;;;2.50;1.38;;;14.00;99.90;;;;;;5025918;28;20199;-82
2022/08/25 08:18:45;;;;;;;3.70;1.60;;;13.90;99.90;;;;;;5026461;28;20221;-82
2022/08/25 08:21:17;;;;;;;5.00;1.50;;;13.90;99.90;;;;;;5029191;28;20226;-81
2022/08/25 08:23:49;;;;;;;4.60;1.70;;;13.80;99.90;;;;;;5015615;28;20214;-81
2022/08/25 08:26:20;;;;;;;5.25;1.70;;;13.70;99.90;;;;;;5022054;28;20207;-76
2022/08/25 08:28:53;;;;;;;3.25;1.60;;;13.70;99.90;;;;;;5021231;28;20218;-82
2022/08/25 08:31:27;;;;;;;4.50;1.60;;;13.70;99.90;;;;;;5017206;28;20956;-80
2022/08/25 08:33:58;;;;;;;2.22;1.25;;;13.70;99.90;;;;;;5030495;28;20197;-80
2022/08/25 08:36:30;;;;;;;2.67;1.25;;;13.60;99.90;;;;;;5009715;28;20222;-79
2022/08/25 08:39:01;;;;;;;5.13;1.60;;;13.60;99.90;;;;;;5011913;28;20237;-81
2022/08/25 08:45:16;;;;;;;4.70;1.25;;;13.60;99.90;;;;;;5023229;28;20546;-83
2022/08/25 08:47:59;;;;;;;3.15;1.67;;;13.60;99.90;;;;;;4988621;28;20214;-83
2022/08/25 08:50:35;;;;;;;37.00;22.90;;;13.60;99.90;;;;;;5022302;28;20624;-83
2022/08/25 08:53:11;;;;;;;13.07;7.93;;;13.50;99.90;;;;;;5021663;28;20205;-82
2022/08/25 08:55:45;;;;;;;8.43;5.88;;;13.60;99.90;;;;;;5018814;28;20295;-83
2022/08/25 08:58:21;;;;;;;6.03;3.90;;;13.60;99.90;;;;;;5016981;28;20200;-82
2022/08/25 09:00:57;;;;;;;6.30;2.83;;;13.60;99.90;;;;;;5018310;28;20714;-83
2022/08/25 09:03:35;;;;;;;6.18;2.88;;;13.60;99.90;;;;;;5021893;28;20196;-82
2022/08/25 09:06:10;;;;;;;6.93;3.85;;;13.60;99.90;;;;;;5005065;28;20191;-83
2022/08/25 09:08:43;;;;;;;8.32;3.38;;;13.60;99.90;;;;;;5015720;28;20645;-81
2022/08/25 09:11:24;;;;;;;6.65;3.00;;;13.60;99.90;;;;;;5010803;28;20231;-81
2022/08/25 09:14:13;;;;;;;5.38;3.08;;;13.50;99.90;;;;;;5014317;28;20234;-81
2022/08/25 09:16:59;;;;;;;5.65;2.90;;;13.60;99.90;;;;;;5016694;28;20705;-79
2022/08/25 09:19:55;;;;;;;5.00;2.53;;;13.70;99.90;;;;;;5019643;28;20198;-79
2022/08/25 09:22:41;;;;;;;4.72;2.60;;;13.80;99.90;;;;;;5027940;28;20209;-81
2022/08/25 09:25:19;;;;;;;5.93;2.45;;;13.80;99.90;;;;;;5016842;28;20300;-79
2022/08/25 09:28:01;;;;;;;8.77;2.70;;;13.90;99.90;;;;;;5024933;28;20208;-77
2022/08/25 09:30:41;;;;;;;6.28;2.65;;;14.00;99.90;;;;;;5011550;28;20213;-80
2022/08/25 09:33:16;;;;;;;6.88;2.75;;;14.00;99.90;;;;;;5016430;28;20224;-84
2022/08/25 09:35:48;;;;;;;5.90;2.85;;;14.00;99.90;;;;;;5009353;28;20284;-84
2022/08/25 09:38:20;;;;;;;4.53;2.70;;;14.00;99.90;;;;;;5015941;28;20202;-82
2022/08/25 09:40:52;;;;;;;5.72;2.70;;;14.00;99.90;;;;;;5014693;28;20253;-83
2022/08/25 09:43:30;;;;;;;5.28;2.80;;;14.00;99.90;;;;;;5014674;28;20204;-79
2022/08/25 09:46:04;;;;;;;5.47;2.47;;;14.00;99.90;;;;;;5013606;28;20680;-82
2022/08/25 09:48:47;;;;;;;3.95;2.15;;;14.10;99.90;;;;;;5022634;28;20191;-81
2022/08/25 09:51:26;;;;;;;4.70;2.08;;;14.10;99.90;;;;;;5016414;28;20329;-82
2022/08/25 09:53:59;;;;;;;5.07;1.90;;;14.20;99.90;;;;;;5023018;28;20201;-81
2022/08/25 09:56:32;;;;;;;3.55;1.63;;;14.10;99.90;;;;;;5022343;28;20209;-82
2022/08/25 09:59:24;;;;;;;4.10;1.70;;;14.10;99.90;;;;;;5016236;28;20187;-81
2022/08/25 10:01:57;;;;;;;4.80;1.85;;;14.00;99.90;;;;;;5014537;28;20665;-81
2022/08/25 10:04:35;;;;;;;4.00;1.65;;;14.00;99.90;;;;;;5011934;28;20182;-83
2022/08/25 10:07:22;;;;;;;3.88;2.00;;;13.90;99.90;;;;;;5019869;28;20278;-83
2022/08/25 10:09:57;;;;;;;5.13;1.60;;;13.90;99.90;;;;;;5025714;28;20221;-78
2022/08/25 10:12:40;;;;;;;3.20;1.75;;;13.80;99.90;;;;;;5023228;28;20301;-83
2022/08/25 10:15:20;;;;;;;2.40;1.90;;;13.80;99.90;;;;;;5020169;28;20256;-84
2022/08/25 10:17:51;;;;;;;4.47;1.80;;;13.70;99.90;;;;;;5010196;28;20245;-83
2022/08/25 10:20:26;;;;;;;7.65;2.45;;;13.60;99.90;;;;;;5005594;28;20202;-83
2022/08/25 10:23:12;;;;;;;6.15;2.53;;;13.50;99.90;;;;;;5018440;28;20190;-84
2022/08/25 10:25:50;;;;;;;6.47;2.75;;;13.50;99.90;;;;;;5009298;28;20270;-84
2022/08/25 10:28:30;;;;;;;7.65;2.70;;;13.40;99.90;;;;;;5005171;28;20199;-84
2022/08/25 10:31:08;;;;;;;4.97;2.60;;;13.40;99.90;;;;;;5015642;28;20212;-80
2022/08/25 10:33:46;;;;;;;7.15;3.10;;;13.30;99.90;;;;;;5008403;28;20198;-84
2022/08/25 10:36:23;;;;;;;6.88;2.85;;;13.30;99.90;;;;;;5011599;28;20277;-83
2022/08/25 10:38:58;;;;;;;4.97;2.85;;;13.30;99.90;;;;;;5010353;28;20213;-83
2022/08/25 10:41:50;;;;;;;10.32;3.00;;;13.30;99.90;;;;;;5023449;28;20290;-84
2022/08/25 10:47:51;;;;;;;5.15;2.72;;;13.20;99.90;;;;;;5015448;28;20282;-83
2022/08/25 10:50:30;;;;;;;5.47;2.72;;;13.20;99.90;;;;;;5013671;28;20198;-83
2022/08/25 10:53:16;;;;;;;4.72;2.53;;;13.30;99.90;;;;;;5010850;28;20215;-85
2022/08/25 10:55:57;;;;;;;6.88;2.30;;;13.30;99.90;;;;;;5010527;28;20208;-80
2022/08/25 10:58:37;;;;;;;6.32;2.67;;;13.30;99.90;;;;;;5016942;28;20218;-83
2022/08/25 11:01:15;;;;;;;5.50;2.45;;;13.30;99.90;;;;;;5006254;28;20688;-75
2022/08/25 11:03:51;;;;;;;5.45;2.45;;;13.20;99.90;;;;;;5008489;28;20666;-80
2022/08/25 11:06:27;;;;;;;5.30;2.28;;;13.20;99.90;;;;;;5008025;28;20252;-81
2022/08/25 11:09:03;;;;;;;85.40;58.45;;;13.20;99.90;;;;;;5012242;28;20194;-80
2022/08/25 11:11:38;;;;;;;84.75;61.15;;;13.20;99.90;;;;;;5009332;28;20912;-83
2022/08/25 11:14:15;;;;;;;13.27;8.57;;;13.30;99.90;;;;;;5012043;28;20558;-81
2022/08/25 11:16:52;;;;;;;10.45;7.00;;;13.20;99.90;;;;;;5015068;28;20190;-83
2022/08/25 11:19:29;;;;;;;7.10;4.47;;;13.20;99.90;;;;;;5009122;28;20198;-83
2022/08/25 11:22:07;;;;;;;5.30;2.97;;;13.20;99.90;;;;;;5009496;28;20213;-81
2022/08/25 11:24:52;;;;;;;5.45;2.70;;;13.20;99.90;;;;;;5013033;28;20218;-82
2022/08/25 11:27:27;;;;;;;5.70;2.70;;;13.20;99.90;;;;;;5015979;28;20257;-79
2022/08/25 11:30:07;;;;;;;4.78;2.25;;;13.20;99.90;;;;;;5012240;28;20187;-80
2022/08/25 11:32:39;;;;;;;5.72;2.60;;;13.20;99.90;;;;;;5013514;28;20456;-81
2022/08/25 11:35:15;;;;;;;4.47;2.53;;;13.20;99.90;;;;;;5009582;28;20317;-82
2022/08/25 11:37:58;;;;;;;87.32;61.45;;;13.20;99.90;;;;;;5009797;28;20286;-82
2022/08/25 11:40:46;;;;;;;53.42;34.22;;;13.20;99.90;;;;;;5011828;28;20655;-82
2022/08/25 11:43:32;;;;;;;10.80;6.25;;;13.30;99.90;;;;;;5007374;28;20198;-82
2022/08/25 11:46:29;;;;;;;63.50;40.40;;;13.30;99.90;;;;;;5004812;28;20195;-84
2022/08/25 11:49:26;;;;;;;12.60;7.32;;;13.30;99.90;;;;;;5009730;28;20221;-83
2022/08/25 11:51:57;;;;;;;9.30;4.38;;;13.30;99.90;;;;;;5015069;28;20210;-83
2022/08/25 11:54:31;;;;;;;7.43;3.35;;;13.20;99.90;;;;;;5014050;28;20218;-77
2022/08/25 11:57:07;;;;;;;4.63;2.65;;;13.20;99.90;;;;;;5012684;28;20213;-82
2022/08/25 12:00:06;;;;;;;4.82;2.22;;;13.20;99.90;;;;;;5010706;28;20199;-80
2022/08/25 12:02:40;;;;;;;4.75;2.35;;;13.20;99.90;;;;;;5010424;28;20202;-83
2022/08/25 12:05:14;;;;;;;2.95;2.03;;;13.10;99.90;;;;;;5012810;28;20739;-81
2022/08/25 12:11:07;;;;;;;3.40;1.85;;;13.10;99.90;;;;;;5012032;28;20210;-86
2022/08/25 12:13:48;;;;;;;4.30;1.67;;;13.10;99.90;;;;;;5008477;28;20210;-77
2022/08/25 12:16:41;;;;;;;6.00;2.10;;;13.00;99.90;;;;;;5010592;28;20194;-84
2022/08/25 12:19:49;;;;;;;3.85;1.90;;;13.10;99.90;;;;;;5010048;28;20207;-83
2022/08/25 12:22:43;;;;;;;4.53;1.88;;;13.10;99.90;;;;;;5008461;28;20265;-81
2022/08/25 12:25:26;;;;;;;4.47;1.88;;;13.00;99.90;;;;;;5011749;28;20245;-85
2022/08/25 12:28:08;;;;;;;6.18;2.00;;;13.00;99.90;;;;;;5010222;28;20285;-81
2022/08/25 12:30:50;;;;;;;8.30;2.10;;;13.00;99.90;;;;;;5010316;28;20191;-86
2022/08/25 12:33:34;;;;;;;3.80;2.17;;;13.00;99.90;;;;;;5010311;28;20904;-85
2022/08/25 12:36:07;;;;;;;5.10;2.15;;;13.00;99.90;;;;;;5012336;28;20235;-85
2022/08/25 12:38:43;;;;;;;6.07;2.30;;;12.90;99.90;;;;;;5005822;28;20202;-82
2022/08/25 12:41:17;;;;;;;5.68;2.40;;;12.90;99.90;;;;;;5009711;28;20294;-84
2022/08/25 12:43:49;;;;;;;3.45;2.13;;;12.80;99.90;;;;;;5010055;28;20218;-84
2022/08/25 12:46:45;;;;;;;4.65;2.20;;;12.80;99.90;;;;;;5008655;28;20203;-77
2022/08/25 12:49:33;;;;;;;5.25;2.30;;;12.80;99.90;;;;;;5003929;28;20218;-79
2022/08/25 12:52:10;;;;;;;3.95;2.17;;;12.80;99.90;;;;;;5012816;28;20197;-79
2022/08/25 12:54:51;;;;;;;5.13;2.28;;;12.80;99.90;;;;;;5015327;28;20226;-82
2022/08/25 12:57:35;;;;;;;3.78;2.03;;;12.80;99.90;;;;;;5007788;28;20205;-85
2022/08/25 13:00:16;;;;;;;3.72;2.10;;;12.70;99.90;;;;;;5008773;28;20205;-81
2022/08/25 13:03:37;;;;;;;4.70;2.55;;;12.70;99.90;;;;;;5007016;28;20203;-83
2022/08/25 13:06:26;;;;;;;5.25;2.78;;;12.70;99.90;;;;;;5011336;28;20191;-84
2022/08/25 13:09:26;;;;;;;4.05;2.28;;;12.70;99.90;;;;;;5013194;28;20223;-82
2022/08/25 13:12:04;;;;;;;4.47;2.38;;;12.70;99.90;;;;;;5007481;28;20218;-83
2022/08/25 13:14:39;;;;;;;4.40;2.17;;;12.70;99.90;;;;;;5007877;28;20191;-81
2022/08/25 13:17:13;;;;;;;8.80;2.72;;;12.70;99.90;;;;;;5010837;28;20679;-83
2022/08/25 13:19:49;;;;;;;2.80;1.90;;;12.70;99.90;;;;;;5012454;28;20214;-81
2022/08/25 13:22:30;;;;;;;5.38;2.08;;;12.70;99.90;;;;;;5013438;28;20198;-84
2022/08/25 13:25:01;;;;;;;5.68;2.15;;;12.70;99.90;;;;;;5013458;28;20227;-79
2022/08/25 13:27:35;;;;;;;3.83;2.38;;;12.70;99.90;;;;;;5016811;28;20195;-76
2022/08/25 13:30:07;;;;;;;2.85;1.95;;;12.70;99.90;;;;;;5012409;28;20209;-77
2022/08/25 13:32:39;;;;;;;4.40;1.90;;;12.70;99.90;;;;;;5009898;28;20215;-81
2022/08/25 13:35:24;;;;;;;7.38;2.25;;;12.70;99.90;;;;;;5013916;28;20716;-78
2022/08/25 13:40:36;;;;;;;3.53;1.90;;;12.70;99.90;;;;;;5043195;28;20305;-80